メインページ
METAR-TAF:

METAR-TAF

空港 :

ニノイ・アキノ国際空港

マニラ, フィリピン

緯度: 14-31N, 経度: 121-00E, 海抜: 14m

現時点の気象観測

当レポートは1時間9分前の23:00(UTC)に作成
変向風 4kt
気温 25°C
湿度 100%
気圧 1003 hPa
視程: 8000m
高度2000ftの雲は散在している
高度8000ftの曇り
小雨

METAR: RPLL 162300Z VRB04KT 8000 -RA SCT020 OVC080 25/25 Q1003 NOSIG RMK A2962

時間: 08:09 (00:09 UTC)

予報

当レポートは1時間9分前の23:00(UTC)に作成
予報は17日の 00時(UTC)から 18日の 06時(UTC)まで有効
南西の風 8kt
視程10km以上
高度2300ftの雲は散在している
高度9000ftの千切れ雲あり
17日の 00時(UTC)から 17日の 06時(UTC)まで一時的に
南西の風 17kt
視程: 7000m
高度2200ftの雲はほとんどない, 積乱雲.
高度2300ftの雲は散在している
高度9000ftの曇り
激しいにわか雨
17日の 06時(UTC)から 17日の 12時(UTC)まで一時的に
西/南西の風 14kt
視程: 5000m
高度2000ftの雲は散在している
高度8000ftの曇り
小雨, 雨

TAF: RPLL 162300Z 1700/1806 23008KT 9999 SCT023 BKN090 TX29/1706Z TN25/1721Z TEMPO 1700/1706 22017KT 7000 +SHRA FEW022CB SCT023 OVC090 TEMPO 1706/1712 24014KT 5000 -RA RA SCT020 OVC080

4,000以上の空港の気象観測と天気予報(METAR報とTAF報)

利用可能な観測所は地図上に黄色い丸と赤い丸で示す。

丸の上にカーソルを重ねると観測所名を参照できる。

次にクリックすると気象観測と天気予報を参照できる。

マップの切り替え:黒色「×」印の緑ボタンをクリックして拡大、「-」印の緑ボタンをクリックして縮小、緑色の三角印をクリックして隣りの地図に切り替え


METAR-TAF: